Centre, AL

5:48 AM CST on March 02, 2015 (GMT -0600)
Chigger Farms/Weiss Lake | Change Station
CLOSE
Current Station
Personal Weather Station
Location: Leesburg, AL
Elevation: 571 ft
Nearby Weather Stations
Active Advisory: Dense Fog Advisory

Elev 571 ft 34.19 °N, 85.74 °W | Updated 25 seconds ago

Fog
Fog
46.2 °F
Feels Like 46 °F
N
0.0
Wind Variable Wind from SE
Gusts 0.0 mph

Today
High -- | Low -- °F
--% Chance of Precip.
Yesterday
High -- | Low -- °F
Precip. -- in
6:10 AM 5:39 PM
Waxing Gibbous, 91% visible
Pressure 30.31 in
Visibility 1.2 miles
Clouds Mostly Cloudy 300 ft
Overcast 600 ft
Windchill 46 °F
Dew Point 46 °F
Humidity 97%
Rainfall 0.00 in
Snow Depth Not available.
UV 0.0 out of 12
Pollen 4.40 out of 12
Air Quality Not available.
Flu Activity Not available.
METAR K4A9 021135Z AUTO 00000KT 1 1/4SM -RA BKN003 OVC006 07/06 A3031 RMK AO2

More Conditions Fewer Conditions

Pressure 30.31 in
Visibility 1.2 miles
Clouds Mostly Cloudy 300 ft
Overcast 600 ft
Windchill 46 °F
Dew Point 46 °F
Humidity 97%
Rainfall 0.00 in
Snow Depth Not available.
UV 0.0 out of 12
Pollen 4.40 out of 12
Air Quality Not available.
Flu Activity Not available.
METAR K4A9 021135Z AUTO 00000KT 1 1/4SM -RA BKN003 OVC006 07/06 A3031 RMK AO2

More Conditions Fewer Conditions

10-Day Weather Forecast

Almanac

Astronomy

Mar. 02, 2015 Rise Set
Actual Time
Civil Twilight
Nautical Twilight
Astronomical Twilight
Moon
Length of Visible Light
Length of Day
Tomorrow will be .
, % of the Moon is Illuminated

Today's Extremes

State Highs State Lows

Community

WunderPhotos

Upload Photos

1,801,757 photos uploaded!

WunderBlogs® & News

Nearby

Air Quality

  Air Quality AQ Index Pollutant
Not available.

Snow Depth

Station Depth Elevation

Earthquake Activity

City Distance Mag. Time & Date
Minimum magnitude displayed is 2.5.

Coastal Water Temperatures

Place Temperature

Nearby Weather Stations

Dense Fog Advisory
Statement as of 3:50 AM CST on March 02, 2015

... Dense fog advisory in effect until 9 am CST this morning...

The National Weather Service in Birmingham has issued a dense fog
advisory... which is in effect until 9 am CST this morning.

* Visibilities... less than a half mile in many areas.

* Impacts... hazardous driving conditions due to reduced
visibilities.


Precautionary/preparedness actions...

A dense fog advisory means visibilities will frequently be
reduced to one quarter mile or less. If driving... slow down... use
your headlights... and leave plenty of distance ahead of you. Low
beam headlights work best in dense fog conditions.